Revere, Minnesota
Current Conditions -  °F | °C
As of 11:33 PM on Sunday 21 Dec 2014 (Local Time) from KTKC Reporting Station
Overcast Overcast  
Wind Chill: 30°   Ceiling: 2300
Heat Index: 39°   Visibility: 7mi
Dew Point: 37°   Wind: 15mph
Humidity: 93%   Direction: 170°S
Pressure: 29.57"   Gusts: 21mph
Location:  44.22°N, 95.36°W
Report Text: KTKC 220533Z AUTO 17013G18KT 7SM SCT017 OVC023 04/03 A2957 RMK AO2 T00370027
Loading
Personal Weather Stations






























Interactive Weather Map New forecast layout! Learn more

10-Day Weather Forecast

Advertisements
Track Severe Weather on mobile